createdAt,value
2018-01-17T00:00:42.010Z,98622.91
2018-01-17T00:03:09.454Z,98632.00
2018-01-17T00:05:36.924Z,98620.52
2018-01-17T00:08:04.406Z,98623.80
2018-01-17T00:10:31.858Z,98631.66
2018-01-17T00:12:59.392Z,98635.24
2018-01-17T00:15:27.207Z,98624.52
2018-01-17T00:17:54.692Z,98632.45
2018-01-17T00:20:22.161Z,98629.09
2018-01-17T00:22:49.625Z,98631.69
2018-01-17T00:25:17.110Z,98632.23
2018-01-17T00:27:44.594Z,98628.36
2018-01-17T00:30:12.130Z,98630.49
2018-01-17T00:32:39.619Z,98633.43
2018-01-17T00:35:07.123Z,98625.56
2018-01-17T00:37:34.589Z,98625.84
2018-01-17T00:40:02.045Z,98630.64
2018-01-17T00:42:29.578Z,98624.17
2018-01-17T00:44:57.078Z,98620.50
2018-01-17T00:47:24.660Z,98622.96
2018-01-17T00:49:52.219Z,98628.02
2018-01-17T00:52:19.726Z,98622.17
2018-01-17T00:54:47.226Z,98629.35
2018-01-17T00:57:14.779Z,98631.18
2018-01-17T00:59:42.300Z,98627.63
2018-01-17T01:02:09.803Z,98633.02
2018-01-17T01:04:37.362Z,98624.95
2018-01-17T01:07:04.961Z,98624.04
2018-01-17T01:09:32.478Z,98621.84
2018-01-17T01:12:00.004Z,98619.34
2018-01-17T01:14:27.530Z,98622.36
2018-01-17T01:16:55.052Z,98619.33
2018-01-17T01:19:22.596Z,98620.05
2018-01-17T01:21:50.125Z,98614.63
2018-01-17T01:24:17.625Z,98619.21
2018-01-17T01:26:45.184Z,98611.59
2018-01-17T01:29:12.706Z,98617.73
2018-01-17T01:31:40.226Z,98618.40
2018-01-17T01:34:07.752Z,98624.45
2018-01-17T01:36:35.364Z,98618.55
2018-01-17T01:39:02.896Z,98622.34
2018-01-17T01:41:30.410Z,98616.42
2018-01-17T01:43:57.965Z,98616.09
2018-01-17T01:46:25.472Z,98613.28
2018-01-17T01:49:00.934Z,98615.02
2018-01-17T01:51:28.440Z,98618.58
2018-01-17T01:53:55.964Z,98614.10
2018-01-17T01:56:23.520Z,98614.66
2018-01-17T01:58:51.054Z,98613.92
2018-01-17T02:01:18.635Z,98615.85
2018-01-17T02:03:46.190Z,98610.32
2018-01-17T02:06:13.700Z,98615.11
2018-01-17T02:08:41.207Z,98609.19
2018-01-17T02:11:08.742Z,98601.67
2018-01-17T02:13:36.273Z,98604.19
2018-01-17T02:16:03.839Z,98597.98
2018-01-17T02:18:31.382Z,98596.42
2018-01-17T02:20:59.005Z,98597.29
2018-01-17T02:23:26.517Z,98595.72
2018-01-17T02:25:54.074Z,98592.26
2018-01-17T02:28:21.612Z,98598.03
2018-01-17T02:30:49.155Z,98601.27
2018-01-17T02:33:16.891Z,98601.98
2018-01-17T02:35:44.403Z,98599.53
2018-01-17T02:38:11.910Z,98591.77
2018-01-17T02:40:39.463Z,98589.71
2018-01-17T02:43:07.005Z,98592.90
2018-01-17T02:45:34.549Z,98600.50
2018-01-17T02:48:02.107Z,98598.41
2018-01-17T02:50:29.657Z,98596.47
2018-01-17T02:52:57.165Z,98595.05
2018-01-17T02:55:24.860Z,98600.27
2018-01-17T02:57:52.376Z,98599.17
2018-01-17T03:00:19.898Z,98600.71
2018-01-17T03:02:47.465Z,98608.47
2018-01-17T03:05:15.003Z,98603.36
2018-01-17T03:07:42.522Z,98611.44
2018-01-17T03:10:10.081Z,98605.63
2018-01-17T03:12:37.590Z,98603.35
2018-01-17T03:15:05.696Z,98596.22
2018-01-17T03:17:34.157Z,98586.62
2018-01-17T03:20:01.668Z,98589.41
2018-01-17T03:22:29.196Z,98580.95
2018-01-17T03:24:57.109Z,98586.39
2018-01-17T03:27:24.634Z,98582.08
2018-01-17T03:29:52.138Z,98582.66
2018-01-17T03:32:19.705Z,98585.78
2018-01-17T03:34:47.245Z,98588.70
2018-01-17T03:37:14.770Z,98582.69
2018-01-17T03:39:42.306Z,98578.60
2018-01-17T03:42:09.838Z,98576.34
2018-01-17T03:44:37.381Z,98586.33
2018-01-17T03:47:04.956Z,98585.32
2018-01-17T03:49:32.479Z,98579.67
2018-01-17T03:52:00.014Z,98577.77
2018-01-17T03:54:27.574Z,98572.72
2018-01-17T03:56:55.101Z,98573.78
2018-01-17T03:59:22.644Z,98569.83
2018-01-17T04:01:50.364Z,98567.41
2018-01-17T04:04:17.882Z,98567.77
2018-01-17T04:06:45.428Z,98573.45
2018-01-17T04:09:12.966Z,98573.47
2018-01-17T04:11:40.477Z,98564.87
2018-01-17T04:14:08.031Z,98574.91
2018-01-17T04:16:35.606Z,98569.95
2018-01-17T04:19:03.140Z,98568.62
2018-01-17T04:21:30.704Z,98574.47
2018-01-17T04:23:58.235Z,98570.16
2018-01-17T04:26:25.773Z,98574.88
2018-01-17T04:28:53.286Z,98580.00
2018-01-17T04:31:20.819Z,98574.99
2018-01-17T04:33:48.393Z,98579.55
2018-01-17T04:36:15.938Z,98579.97
2018-01-17T04:38:43.472Z,98578.59
2018-01-17T04:41:16.034Z,98566.99
2018-01-17T04:43:43.552Z,98576.11
2018-01-17T04:46:11.086Z,98576.48
2018-01-17T04:48:38.609Z,98578.69
2018-01-17T04:51:06.141Z,98578.02
2018-01-17T04:53:33.673Z,98581.25
2018-01-17T04:56:01.194Z,98583.39
2018-01-17T04:58:28.776Z,98579.25
2018-01-17T05:00:56.293Z,98592.14
2018-01-17T05:03:23.821Z,98589.28
2018-01-17T05:05:51.521Z,98586.69
2018-01-17T05:08:19.054Z,98583.59
2018-01-17T05:10:46.567Z,98585.22
2018-01-17T05:13:14.127Z,98585.17
2018-01-17T05:15:41.637Z,98583.22
2018-01-17T05:18:09.172Z,98574.88
2018-01-17T05:20:36.725Z,98578.94
2018-01-17T05:23:04.242Z,98581.17
2018-01-17T05:25:31.786Z,98571.66
2018-01-17T05:27:59.328Z,98579.55
2018-01-17T05:30:26.857Z,98575.73
2018-01-17T05:32:54.415Z,98578.89
2018-01-17T05:35:21.941Z,98579.48
2018-01-17T05:37:49.450Z,98582.44
2018-01-17T05:40:16.983Z,98579.16
2018-01-17T05:42:44.753Z,98578.70
2018-01-17T05:45:12.287Z,98580.75
2018-01-17T05:47:39.810Z,98577.65
2018-01-17T05:50:07.355Z,98582.58
2018-01-17T05:52:34.914Z,98575.91
2018-01-17T05:55:02.453Z,98575.22
2018-01-17T05:57:29.962Z,98574.29
2018-01-17T05:59:57.489Z,98569.95
2018-01-17T06:02:24.994Z,98575.98
2018-01-17T06:04:52.557Z,98574.38
2018-01-17T06:07:20.083Z,98572.71
2018-01-17T06:09:47.603Z,98575.45
2018-01-17T06:12:15.154Z,98573.31
2018-01-17T06:14:42.662Z,98576.65
2018-01-17T06:17:10.225Z,98570.97
2018-01-17T06:19:37.755Z,98581.03
2018-01-17T06:22:05.290Z,98581.31
2018-01-17T06:24:33.336Z,98582.11
2018-01-17T06:27:00.878Z,98582.39
2018-01-17T06:29:28.416Z,98581.27
2018-01-17T06:31:56.092Z,98593.61
2018-01-17T06:34:23.616Z,98596.45
2018-01-17T06:36:51.123Z,98606.22
2018-01-17T06:39:18.658Z,98597.95
2018-01-17T06:41:46.186Z,98604.41
2018-01-17T06:44:13.699Z,98599.59
2018-01-17T06:46:41.257Z,98609.70
2018-01-17T06:49:08.806Z,98608.16
2018-01-17T06:51:36.322Z,98612.23
2018-01-17T06:54:03.870Z,98613.36
2018-01-17T06:56:31.414Z,98609.73
2018-01-17T06:58:58.981Z,98611.09
2018-01-17T07:01:26.520Z,98609.95
2018-01-17T07:03:54.093Z,98605.70
2018-01-17T07:06:21.665Z,98610.55
2018-01-17T07:08:49.215Z,98602.20
2018-01-17T07:11:16.745Z,98604.41
2018-01-17T07:13:44.278Z,98605.16
2018-01-17T07:16:11.782Z,98616.19
2018-01-17T07:18:39.308Z,98614.70
2018-01-17T07:21:06.870Z,98610.95
2018-01-17T07:23:34.425Z,98622.23
2018-01-17T07:26:01.970Z,98621.97
2018-01-17T07:28:29.521Z,98617.38
2018-01-17T07:30:57.039Z,98620.69
2018-01-17T07:33:24.568Z,98622.22
2018-01-17T07:35:52.342Z,98625.37
2018-01-17T07:38:19.868Z,98621.89
2018-01-17T07:40:47.386Z,98625.37
2018-01-17T07:43:14.942Z,98622.30
2018-01-17T07:45:42.486Z,98616.81
2018-01-17T07:48:10.018Z,98620.61
2018-01-17T07:50:37.573Z,98628.09
2018-01-17T07:53:05.098Z,98630.12
2018-01-17T07:55:32.643Z,98634.38
2018-01-17T07:58:00.197Z,98633.05
2018-01-17T08:00:27.718Z,98637.27
2018-01-17T08:02:55.260Z,98644.95
2018-01-17T08:05:22.810Z,98650.20
2018-01-17T08:07:50.332Z,98650.08
2018-01-17T08:10:17.858Z,98641.66
2018-01-17T08:12:45.406Z,98647.06
2018-01-17T08:15:12.947Z,98650.68
2018-01-17T08:17:40.466Z,98654.13
2018-01-17T08:20:08.802Z,98652.04
2018-01-17T08:22:36.330Z,98659.63
2018-01-17T08:25:03.963Z,98666.77
2018-01-17T08:27:31.582Z,98664.30
2018-01-17T08:29:59.116Z,98665.06
2018-01-17T08:32:26.681Z,98668.53
2018-01-17T08:34:54.207Z,98667.05
2018-01-17T08:37:21.748Z,98673.20
2018-01-17T08:39:49.285Z,98673.18
2018-01-17T08:42:16.799Z,98676.66
2018-01-17T08:44:44.362Z,98675.20
2018-01-17T08:47:11.874Z,98684.61
2018-01-17T08:49:39.386Z,98684.53
2018-01-17T08:52:07.205Z,98678.98
2018-01-17T08:54:34.746Z,98684.25
2018-01-17T08:57:02.286Z,98690.05
2018-01-17T08:59:29.834Z,98692.33
2018-01-17T09:01:57.349Z,98693.70
2018-01-17T09:04:24.886Z,98698.51
2018-01-17T09:06:52.421Z,98701.27
2018-01-17T09:09:19.974Z,98701.03
2018-01-17T09:11:47.518Z,98707.35
2018-01-17T09:14:15.083Z,98708.17
2018-01-17T09:16:42.636Z,98709.02
2018-01-17T09:19:10.150Z,98710.95
2018-01-17T09:21:37.708Z,98718.12
2018-01-17T09:24:05.255Z,98725.20
2018-01-17T09:26:32.782Z,98727.85
2018-01-17T09:29:00.359Z,98737.55
2018-01-17T09:31:27.928Z,98739.65
2018-01-17T09:33:55.501Z,98745.88
2018-01-17T09:36:23.023Z,98744.16
2018-01-17T09:38:50.554Z,98752.48
2018-01-17T09:41:18.121Z,98760.64
2018-01-17T09:43:45.650Z,98760.93
2018-01-17T09:46:13.187Z,98769.70
2018-01-17T09:48:40.761Z,98772.72
2018-01-17T09:51:08.290Z,98774.93
2018-01-17T09:53:35.856Z,98784.76
2018-01-17T09:56:03.389Z,98786.86
2018-01-17T09:58:30.915Z,98791.80
2018-01-17T10:00:58.425Z,98789.44
2018-01-17T10:03:26.416Z,98793.70
2018-01-17T10:05:53.993Z,98799.20
2018-01-17T10:08:21.523Z,98797.01
2018-01-17T10:10:49.116Z,98804.58
2018-01-17T10:13:16.634Z,98800.73
2018-01-17T10:15:44.190Z,98801.09
2018-01-17T10:18:12.122Z,98801.55
2018-01-17T10:20:39.659Z,98803.64
2018-01-17T10:23:07.192Z,98797.30
2018-01-17T10:25:34.756Z,98806.13
2018-01-17T10:28:02.267Z,98807.16
2018-01-17T10:30:29.831Z,98818.48
2018-01-17T10:32:57.381Z,98816.91
2018-01-17T10:35:24.910Z,98820.77
2018-01-17T10:37:52.464Z,98824.73
2018-01-17T10:40:20.013Z,98829.17
2018-01-17T10:42:47.791Z,98832.83
2018-01-17T10:45:15.354Z,98832.52
2018-01-17T10:47:42.894Z,98831.72
2018-01-17T10:50:10.451Z,98837.61
2018-01-17T10:52:37.978Z,98839.14
2018-01-17T10:55:06.469Z,98834.34
2018-01-17T10:57:34.236Z,98844.69
2018-01-17T11:00:01.807Z,98841.75
2018-01-17T11:02:29.332Z,98841.55
2018-01-17T11:04:57.225Z,98840.14
2018-01-17T11:07:24.726Z,98850.31
2018-01-17T11:09:52.243Z,98844.28
2018-01-17T11:12:19.810Z,98851.85
2018-01-17T11:14:47.366Z,98860.39
2018-01-17T11:17:14.869Z,98854.83
2018-01-17T11:19:42.514Z,98852.46
2018-01-17T11:22:10.021Z,98849.32
2018-01-17T11:24:37.630Z,98862.98
2018-01-17T11:27:05.393Z,98862.71
2018-01-17T11:29:32.918Z,98866.11
2018-01-17T11:32:00.426Z,98868.00
2018-01-17T11:34:27.981Z,98869.83
2018-01-17T11:36:55.596Z,98870.41
2018-01-17T11:39:23.098Z,98871.38
2018-01-17T11:41:50.736Z,98876.73
2018-01-17T11:44:18.247Z,98872.25
2018-01-17T11:46:45.850Z,98877.27
2018-01-17T11:49:13.413Z,98881.08
2018-01-17T11:51:40.954Z,98885.59
2018-01-17T11:54:08.541Z,98888.79
2018-01-17T11:56:36.100Z,98881.34
2018-01-17T11:59:03.648Z,98888.10
2018-01-17T12:01:31.198Z,98888.77
2018-01-17T12:03:58.749Z,98886.77
2018-01-17T12:06:26.287Z,98891.73
2018-01-17T12:08:53.792Z,98890.66
2018-01-17T12:11:21.322Z,98888.58
2018-01-17T12:13:48.839Z,98896.94
2018-01-17T12:16:16.444Z,98891.46
2018-01-17T12:18:43.964Z,98898.88
2018-01-17T12:21:11.513Z,98894.55
2018-01-17T12:23:39.032Z,98897.89
2018-01-17T12:26:06.551Z,98899.40
2018-01-17T12:28:34.084Z,98901.07
2018-01-17T12:31:01.591Z,98906.68
2018-01-17T12:33:29.094Z,98903.84
2018-01-17T12:35:56.689Z,98908.92
2018-01-17T12:38:24.307Z,98914.06
2018-01-17T12:40:51.872Z,98919.70
2018-01-17T12:43:19.493Z,98914.77
2018-01-17T12:45:47.027Z,98918.63
2018-01-17T12:48:14.545Z,98910.72
2018-01-17T12:50:42.199Z,98921.17
2018-01-17T12:53:09.733Z,98922.08
2018-01-17T12:55:37.263Z,98918.60
2018-01-17T12:58:04.806Z,98926.95
2018-01-17T13:00:32.322Z,98929.47
2018-01-17T13:02:59.852Z,98939.06
2018-01-17T13:05:27.393Z,98938.26
2018-01-17T13:07:54.895Z,98942.51
2018-01-17T13:10:22.411Z,98949.63
2018-01-17T13:12:50.117Z,98962.20
2018-01-17T13:15:17.686Z,98968.88
2018-01-17T13:17:45.469Z,98969.44
2018-01-17T13:20:13.112Z,98973.56
2018-01-17T13:22:40.617Z,98975.05
2018-01-17T13:25:08.113Z,98973.53
2018-01-17T13:27:35.667Z,98979.95
2018-01-17T13:30:03.193Z,98983.38
2018-01-17T13:32:30.798Z,98990.11
2018-01-17T13:34:58.769Z,98995.67
2018-01-17T13:37:26.281Z,98996.70
2018-01-17T13:39:54.283Z,99008.70
2018-01-17T13:42:22.190Z,99015.09
2018-01-17T13:44:50.065Z,99016.83
2018-01-17T13:47:17.612Z,99012.22
2018-01-17T13:49:45.257Z,99019.89
2018-01-17T13:52:12.921Z,99014.43
2018-01-17T13:54:40.467Z,99024.25
2018-01-17T13:57:07.996Z,99029.34
2018-01-17T13:59:35.569Z,99032.92
2018-01-17T14:02:03.091Z,99032.39
2018-01-17T14:04:30.616Z,99039.76
2018-01-17T14:06:58.158Z,99040.55
2018-01-17T14:09:25.716Z,99047.72
2018-01-17T14:11:53.254Z,99040.41
2018-01-17T14:14:20.801Z,99040.76
2018-01-17T14:16:48.390Z,99059.42
2018-01-17T14:19:15.911Z,99058.27
2018-01-17T14:21:43.512Z,99066.48
2018-01-17T14:24:11.009Z,99066.89
2018-01-17T14:26:38.549Z,99070.70
2018-01-17T14:29:06.083Z,99068.28
2018-01-17T14:31:33.990Z,99077.55
2018-01-17T14:34:01.530Z,99091.11
2018-01-17T14:36:29.074Z,99095.61
2018-01-17T14:38:56.580Z,99109.70
2018-01-17T14:41:24.199Z,99118.76
2018-01-17T14:43:51.717Z,99116.47
2018-01-17T14:46:19.212Z,99124.69
2018-01-17T14:48:47.002Z,99129.91
2018-01-17T14:51:14.634Z,99126.43
2018-01-17T14:53:42.135Z,99136.92
2018-01-17T14:56:09.691Z,99142.23
2018-01-17T14:58:37.207Z,99151.27
2018-01-17T15:01:04.766Z,99149.81
2018-01-17T15:03:32.296Z,99158.16
2018-01-17T15:05:59.797Z,99151.56
2018-01-17T15:08:27.298Z,99163.77
2018-01-17T15:10:54.904Z,99177.13
2018-01-17T15:13:22.409Z,99179.59
2018-01-17T15:15:49.910Z,99189.88
2018-01-17T15:18:17.413Z,99186.48
2018-01-17T15:20:44.945Z,99189.80
2018-01-17T15:23:12.631Z,99190.81
2018-01-17T15:25:40.157Z,99195.98
2018-01-17T15:28:07.648Z,99196.79
2018-01-17T15:30:35.382Z,99198.96
2018-01-17T15:33:02.918Z,99197.65
2018-01-17T15:35:30.421Z,99211.52
2018-01-17T15:37:57.945Z,99212.86
2018-01-17T15:40:25.575Z,99210.29
2018-01-17T15:42:53.101Z,99211.38
2018-01-17T15:45:20.857Z,99214.03
2018-01-17T15:47:48.425Z,99219.89
2018-01-17T15:50:16.368Z,99222.55
2018-01-17T15:52:44.691Z,99220.08
2018-01-17T15:55:12.269Z,99225.80
2018-01-17T15:57:39.866Z,99232.28
2018-01-17T16:00:07.396Z,99245.63
2018-01-17T16:02:35.000Z,99240.80
2018-01-17T16:05:02.534Z,99238.54
2018-01-17T16:07:30.132Z,99245.74
2018-01-17T16:09:57.697Z,99249.75
2018-01-17T16:12:25.221Z,99251.91
2018-01-17T16:14:52.839Z,99254.03
2018-01-17T16:17:20.854Z,99253.95
2018-01-17T16:19:48.433Z,99262.37
2018-01-17T16:22:15.984Z,99253.66
2018-01-17T16:24:43.500Z,99266.20
2018-01-17T16:27:11.013Z,99271.03
2018-01-17T16:29:38.565Z,99269.81
2018-01-17T16:32:06.962Z,99265.37
2018-01-17T16:34:34.503Z,99274.73
2018-01-17T17:20:43.253Z,99320.08
2018-01-17T17:23:10.770Z,99318.94
2018-01-17T17:25:38.281Z,99316.47
2018-01-17T17:28:05.839Z,99316.36
2018-01-17T17:30:33.370Z,99318.91
2018-01-17T17:33:00.890Z,99318.62
2018-01-17T17:35:28.445Z,99330.42
2018-01-17T17:37:55.953Z,99336.30
2018-01-17T17:40:23.466Z,99338.58
2018-01-17T17:42:51.014Z,99339.70
2018-01-17T17:45:18.819Z,99346.30
2018-01-17T17:47:46.539Z,99348.03
2018-01-17T17:50:14.098Z,99345.04
2018-01-17T17:52:41.647Z,99349.48
2018-01-17T17:55:09.202Z,99345.86
2018-01-17T17:57:36.732Z,99344.64
2018-01-17T18:00:04.281Z,99349.58
2018-01-17T18:02:31.837Z,99343.19
2018-01-17T18:04:59.385Z,99355.44
2018-01-17T18:07:26.936Z,99354.73
2018-01-17T18:09:54.497Z,99358.86
2018-01-17T18:12:22.029Z,99357.30
2018-01-17T18:14:49.535Z,99364.51
2018-01-17T18:17:17.226Z,99357.51
2018-01-17T18:19:44.758Z,99355.54
2018-01-17T18:22:12.256Z,99355.72
2018-01-17T18:24:39.803Z,99361.71
2018-01-17T18:27:07.320Z,99356.62
2018-01-17T18:29:34.864Z,99362.11
2018-01-17T18:32:02.369Z,99369.52
2018-01-17T18:34:29.890Z,99374.54
2018-01-17T18:36:57.867Z,99386.28
2018-01-17T18:39:25.394Z,99389.25
2018-01-17T18:41:53.457Z,99389.25
2018-01-17T18:44:21.017Z,99389.05
2018-01-17T18:46:48.526Z,99393.86
2018-01-17T18:49:16.033Z,99395.41
2018-01-17T18:51:43.810Z,99396.13
2018-01-17T18:54:11.375Z,99406.51
2018-01-17T18:56:38.930Z,99401.16
2018-01-17T18:59:06.697Z,99408.97
2018-01-17T19:01:34.219Z,99412.47
2018-01-17T19:04:01.721Z,99418.05
2018-01-17T19:06:29.378Z,99418.67
2018-01-17T19:08:56.891Z,99420.12
2018-01-17T19:11:24.386Z,99427.13
2018-01-17T19:13:52.009Z,99431.75
2018-01-17T19:16:19.534Z,99435.66
2018-01-17T19:18:47.069Z,99438.55
2018-01-17T19:21:14.584Z,99439.77
2018-01-17T19:23:42.124Z,99432.56
2018-01-17T19:26:09.651Z,99439.77
2018-01-17T19:28:38.030Z,99441.00
2018-01-17T19:31:05.533Z,99442.34
2018-01-17T19:33:33.247Z,99444.30
2018-01-17T19:36:01.629Z,99453.95
2018-01-17T19:38:29.136Z,99457.67
2018-01-17T19:40:56.700Z,99455.89
2018-01-17T19:43:24.406Z,99461.38
2018-01-17T19:45:51.912Z,99467.95
2018-01-17T19:48:19.461Z,99469.40
2018-01-17T19:50:47.200Z,99473.49
2018-01-17T19:53:15.537Z,99475.47
2018-01-17T19:55:43.035Z,99477.20
2018-01-17T19:58:10.580Z,99489.24
2018-01-17T20:00:38.117Z,99494.90
2018-01-17T20:03:05.700Z,99497.16
2018-01-17T20:05:33.245Z,99506.52
2018-01-17T20:08:00.779Z,99506.31
2018-01-17T20:10:28.398Z,99509.09
2018-01-17T20:12:56.143Z,99509.41
2018-01-17T20:15:23.652Z,99517.82
2018-01-17T20:17:51.172Z,99513.01
2018-01-17T20:20:18.741Z,99515.57
2018-01-17T20:22:51.994Z,99510.20
2018-01-17T20:25:19.511Z,99521.11
2018-01-17T20:27:47.013Z,99513.01
2018-01-17T20:30:14.611Z,99514.01
2018-01-17T20:32:43.052Z,99515.86
2018-01-17T20:35:10.564Z,99519.27
2018-01-17T20:37:38.066Z,99523.68
2018-01-17T20:40:05.620Z,99525.23
2018-01-17T20:42:33.150Z,99534.48
2018-01-17T20:45:00.662Z,99539.63
2018-01-17T20:47:28.196Z,99545.80
2018-01-17T20:49:55.824Z,99548.38
2018-01-17T20:52:23.373Z,99555.80
2018-01-17T20:54:50.909Z,99550.02
2018-01-17T20:57:18.409Z,99555.67
2018-01-17T20:59:46.022Z,99554.66
2018-01-17T21:02:13.543Z,99557.94
2018-01-17T21:04:41.071Z,99565.77
2018-01-17T21:07:08.612Z,99555.77
2018-01-17T21:09:36.129Z,99564.23
2018-01-17T21:12:03.663Z,99568.66
2018-01-17T21:14:31.250Z,99569.06
2018-01-17T21:16:58.778Z,99568.33
2018-01-17T21:19:26.321Z,99578.95
2018-01-17T21:21:53.878Z,99587.67
2018-01-17T21:24:21.392Z,99582.64
2018-01-17T21:26:48.924Z,99590.05
2018-01-17T21:29:16.485Z,99590.45
2018-01-17T21:31:44.023Z,99590.87
2018-01-17T21:34:11.528Z,99599.72
2018-01-17T21:36:39.703Z,99602.00
2018-01-17T21:39:07.204Z,99603.34
2018-01-17T21:41:34.731Z,99607.13
2018-01-17T21:44:08.002Z,99607.85
2018-01-17T21:46:36.467Z,99619.37
2018-01-17T21:49:04.091Z,99617.12
2018-01-17T21:51:31.632Z,99627.30
2018-01-17T21:53:59.156Z,99621.74
2018-01-17T21:56:26.684Z,99630.58
2018-01-17T21:58:54.220Z,99630.50
2018-01-17T22:01:21.795Z,99635.94
2018-01-17T22:03:49.385Z,99637.48
2018-01-17T22:06:17.077Z,99641.20
2018-01-17T22:08:44.599Z,99640.67
2018-01-17T22:11:12.227Z,99642.63
2018-01-17T22:13:39.766Z,99641.20
2018-01-17T22:16:07.290Z,99645.11
2018-01-17T22:18:34.846Z,99647.07
2018-01-17T22:21:02.367Z,99646.74
2018-01-17T22:23:29.899Z,99651.99
2018-01-17T22:25:57.517Z,99662.08
2018-01-17T22:28:25.145Z,99660.36
2018-01-17T22:30:52.717Z,99660.87
2018-01-17T22:33:20.273Z,99667.25
2018-01-17T22:35:47.802Z,99668.89
2018-01-17T22:38:15.318Z,99671.55
2018-01-17T22:40:42.880Z,99679.59
2018-01-17T22:43:10.594Z,99683.39
2018-01-17T22:45:38.120Z,99685.22
2018-01-17T22:48:05.800Z,99688.42
2018-01-17T22:50:33.316Z,99687.81
2018-01-17T22:53:00.821Z,99691.63
2018-01-17T22:55:28.363Z,99694.91
2018-01-17T22:57:55.868Z,99692.97
2018-01-17T23:00:23.398Z,99702.03
2018-01-17T23:02:50.897Z,99702.94
2018-01-17T23:05:18.395Z,99698.42
2018-01-17T23:07:46.097Z,99710.45
2018-01-17T23:10:13.607Z,99708.59
2018-01-17T23:12:41.198Z,99706.33
2018-01-17T23:15:08.977Z,99705.09
2018-01-17T23:17:36.506Z,99701.06
2018-01-17T23:20:04.014Z,99702.62
2018-01-17T23:22:31.526Z,99710.76
2018-01-17T23:24:59.031Z,99712.91
2018-01-17T23:27:26.641Z,99709.83
2018-01-17T23:29:54.230Z,99710.13
2018-01-17T23:32:21.890Z,99725.48
2018-01-17T23:34:49.412Z,99719.84
2018-01-17T23:37:16.933Z,99713.55
2018-01-17T23:39:44.432Z,99714.78
2018-01-17T23:42:11.998Z,99717.77
2018-01-17T23:44:39.589Z,99722.69
2018-01-17T23:47:07.160Z,99704.56
2018-01-17T23:49:34.706Z,99720.61
2018-01-17T23:52:02.245Z,99718.26
2018-01-17T23:54:29.753Z,99727.52
2018-01-17T23:56:57.687Z,99733.52
2018-01-17T23:59:25.180Z,99722.59
